Time;durP1;ratioP1;P1;durP2;ratioP2;P2;SDS_P1;SDS_P2;PMS_P1;PMS_P2;Temp;Humidity;BMP_temperature;BMP_pressure;BME280_temperature;BME280_humidity;BME280_pressure;Samples;Min_cycle;Max_cycle;Signal;HPM_P1;HPM_P2
2021/09/05 00:01:06;;;;;;;13.70;8.53;;;16.00;99.90;;;;;;4992444;28;20509;-61
2021/09/05 00:03:33;;;;;;;10.23;8.57;;;16.00;99.90;;;;;;4992200;28;20458;-61
2021/09/05 00:06:00;;;;;;;14.90;9.60;;;16.00;99.90;;;;;;4991975;28;20457;-60
2021/09/05 00:08:27;;;;;;;12.83;8.93;;;16.00;99.90;;;;;;4992081;28;20960;-60
2021/09/05 00:10:54;;;;;;;11.77;8.83;;;16.00;99.90;;;;;;4992439;28;20474;-60
2021/09/05 00:13:23;;;;;;;13.97;9.30;;;16.00;99.90;;;;;;4992610;28;20454;-61
2021/09/05 00:15:50;;;;;;;11.00;8.37;;;16.00;99.90;;;;;;4992211;28;20486;-60
2021/09/05 00:18:17;;;;;;;10.87;8.40;;;16.00;99.90;;;;;;4991523;28;20461;-60
2021/09/05 00:20:44;;;;;;;10.80;8.50;;;15.90;99.90;;;;;;4991680;28;20528;-61
2021/09/05 00:23:13;;;;;;;10.00;8.00;;;15.90;99.90;;;;;;4992078;28;20462;-60
2021/09/05 00:25:40;;;;;;;14.17;8.50;;;15.90;99.90;;;;;;4992025;28;20541;-60
2021/09/05 00:28:07;;;;;;;8.60;7.70;;;15.80;99.90;;;;;;4992412;28;20812;-61
2021/09/05 00:30:36;;;;;;;11.63;8.10;;;15.80;99.90;;;;;;4991979;28;20474;-60
2021/09/05 00:33:07;;;;;;;10.17;8.73;;;15.80;99.90;;;;;;4991716;28;20442;-60
2021/09/05 00:35:34;;;;;;;10.40;7.20;;;15.70;99.90;;;;;;4991670;28;20593;-61
2021/09/05 00:38:01;;;;;;;8.20;7.30;;;15.70;99.90;;;;;;4992659;28;20450;-60
2021/09/05 00:40:28;;;;;;;10.17;8.13;;;15.70;99.90;;;;;;4991552;28;20987;-60
2021/09/05 00:42:55;;;;;;;12.00;7.73;;;15.70;99.90;;;;;;4992177;28;20459;-60
2021/09/05 00:45:22;;;;;;;11.20;7.80;;;15.50;99.90;;;;;;4991669;28;20447;-60
2021/09/05 00:47:50;;;;;;;8.80;7.03;;;15.40;99.90;;;;;;4991901;28;20508;-60
2021/09/05 00:50:18;;;;;;;7.97;6.47;;;15.50;99.90;;;;;;4990941;28;20470;-60
2021/09/05 00:52:45;;;;;;;8.67;7.10;;;15.50;99.90;;;;;;4992077;28;20461;-60
2021/09/05 00:55:13;;;;;;;10.60;7.83;;;15.50;99.90;;;;;;4991969;28;20486;-60
2021/09/05 00:57:42;;;;;;;8.93;7.13;;;15.50;99.90;;;;;;4992472;28;20500;-60
2021/09/05 01:00:10;;;;;;;8.13;6.87;;;15.50;99.90;;;;;;4991759;28;20501;-60
2021/09/05 01:02:37;;;;;;;10.37;8.17;;;15.50;99.90;;;;;;4991484;28;20839;-60
2021/09/05 01:05:07;;;;;;;9.10;7.50;;;15.40;99.90;;;;;;4991876;28;20453;-61
2021/09/05 01:07:34;;;;;;;11.00;7.90;;;15.30;99.90;;;;;;4992037;28;20454;-60
2021/09/05 01:10:01;;;;;;;11.30;8.10;;;15.30;99.90;;;;;;4991572;28;20481;-60
2021/09/05 01:12:28;;;;;;;11.53;8.10;;;15.30;99.90;;;;;;4991344;28;20462;-60
2021/09/05 01:14:56;;;;;;;12.10;8.20;;;15.20;99.90;;;;;;4992228;28;20548;-61
2021/09/05 01:17:23;;;;;;;9.17;7.20;;;15.20;99.90;;;;;;4994068;28;20834;-61
2021/09/05 01:19:50;;;;;;;14.33;8.80;;;15.10;99.90;;;;;;4995061;28;20466;-60
2021/09/05 01:22:18;;;;;;;10.40;8.37;;;15.10;99.90;;;;;;4995450;28;20811;-61
2021/09/05 01:24:46;;;;;;;10.37;8.07;;;15.10;99.90;;;;;;4995545;28;20513;-60
2021/09/05 01:27:15;;;;;;;11.93;8.10;;;15.10;99.90;;;;;;4995791;28;20446;-61
2021/09/05 01:29:42;;;;;;;10.43;7.67;;;15.10;99.90;;;;;;4995312;28;20486;-60
2021/09/05 01:32:09;;;;;;;8.60;7.33;;;15.10;99.90;;;;;;4994530;28;20450;-60
2021/09/05 01:34:36;;;;;;;12.03;7.53;;;15.10;99.90;;;;;;4994641;28;21018;-60
2021/09/05 01:37:03;;;;;;;11.03;7.20;;;15.10;99.90;;;;;;4995222;28;20509;-61
2021/09/05 01:39:30;;;;;;;8.23;6.90;;;15.10;99.90;;;;;;4995021;28;20481;-60
2021/09/05 01:41:57;;;;;;;9.00;6.70;;;15.20;99.90;;;;;;4994732;28;20822;-61
2021/09/05 01:44:26;;;;;;;9.00;6.80;;;15.20;99.90;;;;;;4995092;28;20442;-60
2021/09/05 01:46:53;;;;;;;10.83;7.03;;;15.20;99.90;;;;;;4995331;28;20461;-61
2021/09/05 01:49:20;;;;;;;9.53;6.97;;;15.20;99.90;;;;;;4994386;28;20470;-60
2021/09/05 01:51:47;;;;;;;7.47;6.00;;;15.20;99.90;;;;;;4995091;28;20458;-61
2021/09/05 01:54:14;;;;;;;11.73;7.80;;;15.20;99.90;;;;;;4995237;28;20457;-60
2021/09/05 01:56:42;;;;;;;8.27;7.00;;;15.10;99.90;;;;;;4994180;28;20458;-61
2021/09/05 01:59:09;;;;;;;9.43;7.77;;;15.00;99.90;;;;;;4994596;28;20458;-60
2021/09/05 02:01:37;;;;;;;9.13;7.17;;;14.90;99.90;;;;;;4995188;28;20450;-61
2021/09/05 02:04:05;;;;;;;9.03;7.30;;;14.80;99.90;;;;;;4994595;28;20457;-60
2021/09/05 02:06:32;;;;;;;8.27;7.03;;;14.90;99.90;;;;;;4994934;28;20459;-61
2021/09/05 02:08:59;;;;;;;9.20;7.20;;;14.90;99.90;;;;;;4995011;28;20509;-61
2021/09/05 02:11:26;;;;;;;9.40;7.37;;;15.00;99.90;;;;;;4994303;28;20463;-60
2021/09/05 02:13:56;;;;;;;10.63;7.30;;;14.90;99.90;;;;;;4994958;28;20509;-61
2021/09/05 02:16:23;;;;;;;9.50;7.23;;;14.90;99.90;;;;;;4994474;28;20482;-60
2021/09/05 02:18:52;;;;;;;8.30;6.70;;;14.90;99.90;;;;;;4994800;28;20473;-61
2021/09/05 02:21:19;;;;;;;9.87;6.90;;;14.90;99.90;;;;;;4993897;28;20447;-60
2021/09/05 02:23:46;;;;;;;10.30;7.60;;;14.90;99.90;;;;;;4994533;28;20450;-60
2021/09/05 02:26:13;;;;;;;9.83;7.17;;;14.90;99.90;;;;;;4994512;28;21135;-60
2021/09/05 02:28:40;;;;;;;8.80;6.60;;;14.90;99.90;;;;;;4994561;28;20454;-60
2021/09/05 02:31:07;;;;;;;8.50;7.60;;;14.90;99.90;;;;;;4993478;28;20938;-60
2021/09/05 02:33:34;;;;;;;7.03;6.33;;;14.90;99.90;;;;;;4993487;28;20513;-60
2021/09/05 02:36:03;;;;;;;8.90;6.83;;;14.90;99.90;;;;;;4993767;28;20482;-60
2021/09/05 02:38:30;;;;;;;7.53;6.73;;;14.90;99.90;;;;;;4994236;28;20864;-61
2021/09/05 02:40:57;;;;;;;9.57;6.30;;;14.90;99.90;;;;;;4993730;28;20533;-60
2021/09/05 02:43:24;;;;;;;8.80;6.60;;;14.80;99.90;;;;;;4994210;28;20501;-60
2021/09/05 02:45:51;;;;;;;7.23;5.97;;;14.90;99.90;;;;;;4993105;28;20806;-60
2021/09/05 02:48:18;;;;;;;9.70;7.17;;;14.90;99.90;;;;;;4992191;28;20497;-61
2021/09/05 02:50:45;;;;;;;8.53;7.17;;;14.80;99.90;;;;;;4991659;28;20489;-60
2021/09/05 02:53:13;;;;;;;8.23;6.67;;;14.90;99.90;;;;;;4988456;28;20454;-61
2021/09/05 02:55:40;;;;;;;9.27;7.07;;;14.80;99.90;;;;;;4991786;28;20957;-60
2021/09/05 02:58:07;;;;;;;8.63;6.53;;;14.80;99.90;;;;;;4990848;28;20451;-60
2021/09/05 03:00:34;;;;;;;9.30;7.23;;;14.80;99.90;;;;;;4992467;28;21058;-61
2021/09/05 03:03:01;;;;;;;11.60;7.83;;;14.80;99.90;;;;;;4992512;28;20461;-61
2021/09/05 03:05:28;;;;;;;9.07;6.60;;;14.80;99.90;;;;;;4992777;28;20795;-61
2021/09/05 03:07:55;;;;;;;7.93;6.80;;;14.70;99.90;;;;;;4992805;28;20509;-61
2021/09/05 03:10:24;;;;;;;7.43;6.53;;;14.60;99.90;;;;;;4992405;28;20466;-61
2021/09/05 03:12:51;;;;;;;11.20;8.00;;;14.60;99.90;;;;;;4992148;28;20509;-61
2021/09/05 03:15:18;;;;;;;9.60;6.63;;;14.60;99.90;;;;;;4992502;28;20533;-60
2021/09/05 03:17:45;;;;;;;8.63;6.80;;;14.50;99.90;;;;;;4992553;28;20477;-60
2021/09/05 03:20:13;;;;;;;11.57;7.97;;;14.40;99.90;;;;;;4990936;28;20470;-62
2021/09/05 03:22:40;;;;;;;8.03;7.20;;;14.30;99.90;;;;;;4992329;28;21056;-60
2021/09/05 03:25:09;;;;;;;8.33;7.10;;;14.30;99.90;;;;;;4992036;28;20875;-61
2021/09/05 03:27:37;;;;;;;8.20;6.70;;;14.20;99.90;;;;;;4991737;28;20454;-61
2021/09/05 03:30:05;;;;;;;9.50;7.20;;;14.30;99.90;;;;;;4992349;28;20555;-60
2021/09/05 03:32:33;;;;;;;11.10;6.90;;;14.30;99.90;;;;;;4991300;28;20458;-60
2021/09/05 03:35:00;;;;;;;10.10;6.67;;;14.20;99.90;;;;;;4992134;28;20486;-61
2021/09/05 03:37:27;;;;;;;8.50;6.83;;;14.30;99.90;;;;;;4992226;28;20501;-60
2021/09/05 03:39:54;;;;;;;10.03;6.63;;;14.20;99.90;;;;;;4991572;28;20878;-61
2021/09/05 03:42:21;;;;;;;8.60;7.10;;;14.20;99.90;;;;;;4987662;28;21014;-60
2021/09/05 03:44:50;;;;;;;11.90;7.07;;;14.20;99.90;;;;;;4991902;28;20513;-60
2021/09/05 03:47:17;;;;;;;8.97;6.73;;;14.20;99.90;;;;;;4991283;28;20952;-60
2021/09/05 03:49:44;;;;;;;10.00;6.57;;;14.20;99.90;;;;;;4991375;28;20474;-61
2021/09/05 03:52:11;;;;;;;8.80;6.70;;;14.20;99.90;;;;;;4991609;28;20489;-60
2021/09/05 03:54:38;;;;;;;12.60;7.00;;;14.20;99.90;;;;;;4990890;28;20477;-60
2021/09/05 03:57:05;;;;;;;8.90;7.10;;;14.10;99.90;;;;;;4991216;28;20447;-60
2021/09/05 03:59:32;;;;;;;8.67;7.23;;;14.20;99.90;;;;;;4991566;28;20525;-60
2021/09/05 04:02:00;;;;;;;10.10;7.53;;;14.20;99.90;;;;;;4990935;28;20458;-59
2021/09/05 04:04:27;;;;;;;9.97;6.97;;;14.30;99.90;;;;;;4991685;28;20446;-61
2021/09/05 04:07:01;;;;;;;7.70;6.20;;;14.30;99.90;;;;;;4991375;28;20434;-60
2021/09/05 04:12:13;;;;;;;10.20;6.43;;;14.20;99.90;;;;;;4991116;28;20457;-60
2021/09/05 04:14:40;;;;;;;8.00;6.43;;;14.20;99.90;;;;;;4991156;28;20510;-60
2021/09/05 04:17:09;;;;;;;9.27;6.70;;;14.20;99.90;;;;;;4990782;28;21061;-60
2021/09/05 04:19:36;;;;;;;9.97;6.53;;;14.20;99.90;;;;;;4981790;28;20529;-61
2021/09/05 04:22:04;;;;;;;7.37;6.47;;;14.20;99.90;;;;;;4993727;28;21013;-60
2021/09/05 04:24:31;;;;;;;6.70;6.00;;;14.30;99.90;;;;;;4990430;28;20509;-60
2021/09/05 04:26:58;;;;;;;8.27;6.80;;;14.20;99.90;;;;;;4990712;28;20442;-60
2021/09/05 04:29:25;;;;;;;8.20;6.90;;;14.30;99.90;;;;;;4991963;28;20470;-60
2021/09/05 04:31:52;;;;;;;9.23;6.67;;;14.10;99.90;;;;;;4990852;28;20586;-60
2021/09/05 04:34:20;;;;;;;8.93;7.03;;;14.10;99.90;;;;;;4990769;28;20471;-60
2021/09/05 04:36:47;;;;;;;7.70;6.50;;;14.10;99.90;;;;;;4983635;28;20490;-60
2021/09/05 04:39:14;;;;;;;8.00;6.77;;;14.00;99.90;;;;;;4976888;28;20478;-61
2021/09/05 04:41:41;;;;;;;8.23;6.87;;;14.10;99.90;;;;;;4986538;28;20522;-60
2021/09/05 04:44:08;;;;;;;8.20;6.00;;;14.10;99.90;;;;;;4991966;28;20510;-60
2021/09/05 04:46:35;;;;;;;11.90;6.90;;;14.10;99.90;;;;;;4990919;28;20455;-60
2021/09/05 04:49:02;;;;;;;8.07;6.90;;;14.10;99.90;;;;;;4991448;28;20500;-60
2021/09/05 04:51:30;;;;;;;7.37;5.97;;;14.10;99.90;;;;;;4992661;28;20450;-60
2021/09/05 04:53:57;;;;;;;8.03;7.07;;;14.10;99.90;;;;;;4995823;28;20943;-60
2021/09/05 04:56:24;;;;;;;9.43;6.63;;;14.20;99.90;;;;;;4995245;28;20548;-61
2021/09/05 04:58:51;;;;;;;7.87;6.70;;;14.10;99.90;;;;;;4995865;28;20446;-60
2021/09/05 05:01:18;;;;;;;7.70;6.90;;;14.10;99.90;;;;;;4995038;28;20521;-60
2021/09/05 05:03:45;;;;;;;10.30;8.07;;;14.20;99.90;;;;;;4995644;28;20911;-60
2021/09/05 05:06:12;;;;;;;9.53;7.53;;;14.10;99.90;;;;;;4995473;28;21006;-60
2021/09/05 05:08:41;;;;;;;9.47;7.30;;;14.10;99.90;;;;;;4995821;28;20462;-60
2021/09/05 05:11:13;;;;;;;10.43;7.80;;;14.10;99.90;;;;;;4995911;28;20469;-60
2021/09/05 05:13:40;;;;;;;9.33;7.13;;;14.20;99.90;;;;;;4994755;28;20897;-60
2021/09/05 05:16:07;;;;;;;10.17;7.50;;;14.10;99.90;;;;;;4995909;28;20482;-61
2021/09/05 05:18:34;;;;;;;9.63;7.80;;;14.20;99.90;;;;;;4994807;28;20489;-60
2021/09/05 05:21:01;;;;;;;10.13;7.23;;;14.20;99.90;;;;;;4994598;28;20474;-60
2021/09/05 05:23:29;;;;;;;8.80;7.03;;;14.30;99.90;;;;;;4995699;28;20509;-60
2021/09/05 05:25:57;;;;;;;9.30;7.50;;;14.30;99.90;;;;;;4995329;28;20459;-60
2021/09/05 05:28:24;;;;;;;7.67;6.63;;;14.30;99.90;;;;;;4989729;28;20954;-60
2021/09/05 05:30:51;;;;;;;9.67;7.00;;;14.40;99.90;;;;;;4993761;28;20537;-61
2021/09/05 05:33:18;;;;;;;9.90;7.40;;;14.30;99.90;;;;;;4995720;28;20458;-60
2021/09/05 05:35:45;;;;;;;10.47;7.90;;;14.40;99.90;;;;;;4995645;28;20536;-61
2021/09/05 05:38:12;;;;;;;9.47;7.13;;;14.50;99.90;;;;;;4995453;28;20454;-61
2021/09/05 05:40:39;;;;;;;8.57;7.20;;;14.50;99.90;;;;;;4993309;28;21069;-61
2021/09/05 05:43:08;;;;;;;9.50;7.33;;;14.70;99.90;;;;;;4993612;28;20455;-60
2021/09/05 05:45:35;;;;;;;13.03;6.60;;;15.10;99.90;;;;;;4992862;28;20454;-61
2021/09/05 05:48:02;;;;;;;8.37;6.43;;;16.00;99.90;;;;;;4993608;28;20951;-60
2021/09/05 05:50:30;;;;;;;9.10;6.57;;;17.00;99.90;;;;;;4993119;28;20481;-60
2021/09/05 05:52:57;;;;;;;9.17;6.83;;;18.00;99.90;;;;;;4993092;28;20543;-60
2021/09/05 05:55:24;;;;;;;7.60;6.00;;;19.00;99.90;;;;;;4993246;28;20481;-62
2021/09/05 05:57:50;;;;;;;7.90;5.57;;;19.70;99.90;;;;;;4991720;28;20493;-60
2021/09/05 06:00:24;;;;;;;7.10;5.90;;;20.20;99.90;;;;;;4992930;28;20479;-60
2021/09/05 06:02:51;;;;;;;7.10;5.60;;;20.80;99.90;;;;;;4992838;28;20458;-61
2021/09/05 06:05:19;;;;;;;9.03;5.00;;;21.40;99.90;;;;;;4993273;28;20865;-61
2021/09/05 06:07:46;;;;;;;5.37;4.87;;;21.80;99.90;;;;;;4992516;28;20447;-61
2021/09/05 06:10:13;;;;;;;9.10;7.57;;;22.10;99.90;;;;;;4993291;28;20478;-62
2021/09/05 06:12:40;;;;;;;7.07;5.47;;;22.00;99.90;;;;;;4992399;28;20450;-61
2021/09/05 06:15:09;;;;;;;7.00;6.30;;;22.30;99.90;;;;;;4993397;28;20454;-61
2021/09/05 06:17:37;;;;;;;7.97;6.20;;;21.90;99.90;;;;;;4992794;28;20486;-61
2021/09/05 06:20:07;;;;;;;8.17;6.37;;;22.10;99.90;;;;;;4993192;28;21343;-60
2021/09/05 06:22:34;;;;;;;8.87;6.80;;;22.20;99.90;;;;;;4989206;28;20482;-61
2021/09/05 06:25:01;;;;;;;6.67;5.97;;;22.40;99.90;;;;;;4993173;28;20521;-61
2021/09/05 06:27:28;;;;;;;9.37;6.40;;;22.70;99.90;;;;;;4992511;28;20455;-61
2021/09/05 06:29:55;;;;;;;7.93;5.80;;;22.80;99.90;;;;;;4991065;28;20502;-61
2021/09/05 06:32:22;;;;;;;6.00;5.40;;;22.80;99.90;;;;;;4992272;28;21039;-63
2021/09/05 06:34:51;;;;;;;7.43;5.70;;;23.50;99.90;;;;;;4992467;28;20446;-62
2021/09/05 06:37:18;;;;;;;6.47;5.87;;;24.00;99.90;;;;;;4993456;28;20486;-61
2021/09/05 06:39:45;;;;;;;6.13;5.53;;;24.60;99.90;;;;;;4992097;28;20489;-61
2021/09/05 06:42:12;;;;;;;8.10;7.00;;;24.90;99.90;;;;;;4989454;28;20455;-62
2021/09/05 06:44:39;;;;;;;6.20;5.60;;;24.80;99.90;;;;;;4989957;28;20545;-61
2021/09/05 06:47:06;;;;;;;6.87;5.50;;;24.70;99.90;;;;;;4992651;28;20493;-61
2021/09/05 06:49:33;;;;;;;7.23;5.77;;;25.00;99.90;;;;;;4992339;28;20840;-62
2021/09/05 06:52:04;;;;;;;5.27;4.77;;;25.10;99.90;;;;;;4989066;28;20446;-62
2021/09/05 06:54:31;;;;;;;5.30;4.80;;;25.10;99.90;;;;;;4992968;28;20453;-62
2021/09/05 06:56:58;;;;;;;4.70;4.03;;;25.00;99.90;;;;;;4993325;28;20556;-62
2021/09/05 06:59:25;;;;;;;5.23;4.73;;;24.90;99.90;;;;;;4989099;28;21038;-62
2021/09/05 07:01:52;;;;;;;5.43;4.87;;;24.80;99.90;;;;;;4992836;28;20453;-61
2021/09/05 07:04:19;;;;;;;6.70;5.07;;;25.50;99.90;;;;;;4986479;28;20832;-63
2021/09/05 07:06:47;;;;;;;5.83;5.27;;;25.80;99.90;;;;;;4984349;28;20512;-63
2021/09/05 07:09:15;;;;;;;5.13;4.63;;;25.90;99.90;;;;;;4984945;28;20490;-63
2021/09/05 07:11:42;;;;;;;5.33;4.83;;;26.10;99.90;;;;;;4986382;28;20462;-63
2021/09/05 07:14:09;;;;;;;4.70;4.20;;;26.20;99.90;;;;;;4986384;28;20458;-63
2021/09/05 07:16:36;;;;;;;4.87;4.37;;;26.40;99.90;;;;;;4990658;28;20489;-62
2021/09/05 07:19:03;;;;;;;5.00;4.50;;;26.60;99.90;;;;;;4988704;28;20451;-62
2021/09/05 07:21:30;;;;;;;4.83;4.33;;;26.30;99.90;;;;;;4991792;28;20446;-62
2021/09/05 07:23:57;;;;;;;4.80;4.40;;;26.20;99.90;;;;;;4991652;28;20454;-63
2021/09/05 07:26:26;;;;;;;5.33;4.83;;;26.00;99.90;;;;;;4991427;28;20525;-62
2021/09/05 07:28:53;;;;;;;4.80;4.33;;;26.00;99.90;;;;;;4989276;28;20508;-62
2021/09/05 07:31:20;;;;;;;4.57;4.17;;;25.60;99.90;;;;;;4991843;28;20511;-62
2021/09/05 07:33:50;;;;;;;5.50;4.67;;;25.50;99.90;;;;;;4992560;28;20458;-62
2021/09/05 07:36:17;;;;;;;5.10;4.60;;;25.70;99.90;;;;;;4992376;28;20484;-63
2021/09/05 07:38:44;;;;;;;5.03;4.53;;;25.50;99.90;;;;;;4992559;28;20532;-63
2021/09/05 07:41:13;;;;;;;5.03;4.53;;;25.40;99.90;;;;;;4992918;28;20529;-63
2021/09/05 07:43:41;;;;;;;5.27;4.77;;;25.60;99.90;;;;;;4992101;28;20458;-63
2021/09/05 07:46:09;;;;;;;4.80;4.30;;;25.70;99.90;;;;;;4993013;28;20506;-63
2021/09/05 07:48:36;;;;;;;5.97;4.87;;;26.00;99.90;;;;;;4992156;28;20516;-63
2021/09/05 07:51:03;;;;;;;6.10;4.30;;;25.90;99.90;;;;;;4991936;28;20475;-63
2021/09/05 07:53:30;;;;;;;5.47;4.97;;;26.30;99.90;;;;;;4992598;28;20513;-62
2021/09/05 07:55:57;;;;;;;7.13;4.87;;;26.40;99.90;;;;;;4992693;28;20916;-63
2021/09/05 07:58:27;;;;;;;5.73;5.20;;;26.40;99.90;;;;;;4991737;28;20450;-63
2021/09/05 08:00:55;;;;;;;7.53;4.77;;;26.40;99.90;;;;;;4991765;28;20482;-64
2021/09/05 08:03:22;;;;;;;4.30;4.00;;;26.70;99.90;;;;;;4992600;28;20454;-64
2021/09/05 08:05:49;;;;;;;4.70;4.23;;;26.40;99.90;;;;;;4992790;28;20458;-63
2021/09/05 08:08:18;;;;;;;6.00;4.50;;;26.70;99.90;;;;;;4992671;28;20450;-63
2021/09/05 08:10:44;;;;;;;4.63;4.10;;;26.80;99.90;;;;;;4992250;28;20553;-64
2021/09/05 08:13:11;;;;;;;10.73;4.77;;;26.70;99.90;;;;;;4992518;28;20520;-63
2021/09/05 08:15:38;;;;;;;4.40;4.00;;;26.80;99.90;;;;;;4991946;28;20505;-63
2021/09/05 08:18:07;;;;;;;5.20;4.60;;;26.80;99.90;;;;;;4992103;28;20996;-64
2021/09/05 08:20:34;;;;;;;4.50;4.00;;;26.60;99.90;;;;;;4992006;28;20478;-64
2021/09/05 08:23:01;;;;;;;7.50;4.40;;;26.70;99.90;;;;;;4992631;28;20509;-64
2021/09/05 08:25:28;;;;;;;5.17;4.67;;;27.00;99.90;;;;;;4992240;28;20450;-64
2021/09/05 08:27:55;;;;;;;4.17;3.80;;;27.40;99.90;;;;;;4991096;28;20497;-65
2021/09/05 08:30:22;;;;;;;4.13;3.70;;;27.80;99.90;;;;;;4989937;28;20534;-64
2021/09/05 08:32:49;;;;;;;5.90;4.10;;;28.20;99.90;;;;;;4991922;28;20509;-65
2021/09/05 08:35:19;;;;;;;4.63;4.23;;;28.10;99.90;;;;;;4992416;28;20497;-64
2021/09/05 08:37:46;;;;;;;4.47;4.07;;;27.60;99.90;;;;;;4992083;28;20533;-64
2021/09/05 08:40:14;;;;;;;4.30;3.90;;;27.30;99.90;;;;;;4991941;28;20868;-64
2021/09/05 08:42:41;;;;;;;4.83;4.43;;;27.50;99.90;;;;;;4991792;28;20458;-64
2021/09/05 08:45:09;;;;;;;4.37;3.97;;;28.10;99.90;;;;;;4992418;28;20450;-64
2021/09/05 08:47:36;;;;;;;4.47;3.83;;;28.10;99.90;;;;;;4991695;28;20456;-64
2021/09/05 08:50:05;;;;;;;4.90;4.50;;;27.80;99.90;;;;;;4992082;28;20482;-64
2021/09/05 08:52:34;;;;;;;3.80;3.50;;;27.90;99.90;;;;;;4992163;28;20458;-64
2021/09/05 08:55:04;;;;;;;4.93;4.43;;;28.40;99.90;;;;;;4992133;28;20458;-64
2021/09/05 08:57:31;;;;;;;4.43;4.03;;;28.60;99.90;;;;;;4992032;28;20899;-65
2021/09/05 08:59:58;;;;;;;4.80;4.40;;;28.60;99.90;;;;;;4991890;28;20474;-64
2021/09/05 09:02:25;;;;;;;7.17;4.20;;;28.30;99.90;;;;;;4991885;28;20490;-64
2021/09/05 09:04:54;;;;;;;4.77;4.30;;;27.80;99.90;;;;;;4992207;28;20458;-63
2021/09/05 09:07:21;;;;;;;5.10;4.40;;;28.30;99.90;;;;;;4991535;28;20447;-64
2021/09/05 09:10:01;;;;;;;4.47;4.07;;;28.50;99.90;;;;;;4991927;28;21003;-64
2021/09/05 09:12:48;;;;;;;4.70;4.20;;;28.40;99.90;;;;;;4991732;28;20455;-65
2021/09/05 09:15:20;;;;;;;5.17;4.30;;;29.00;99.90;;;;;;4992152;28;20454;-63
2021/09/05 09:17:51;;;;;;;6.50;3.90;;;29.20;99.90;;;;;;4991248;28;20485;-65
2021/09/05 09:20:35;;;;;;;4.87;4.30;;;29.30;99.90;;;;;;4972242;28;20971;-64
2021/09/05 09:23:11;;;;;;;4.97;4.47;;;29.20;99.90;;;;;;4972720;28;20455;-65
2021/09/05 09:25:40;;;;;;;5.17;4.43;;;29.40;99.90;;;;;;4972821;28;20447;-66
2021/09/05 09:28:27;;;;;;;6.07;4.73;;;29.00;99.90;;;;;;4983095;28;20452;-65
2021/09/05 09:30:55;;;;;;;4.57;4.17;;;29.00;99.90;;;;;;4991667;28;20486;-66
2021/09/05 09:33:24;;;;;;;7.20;4.47;;;29.20;99.90;;;;;;4991636;28;20450;-65
2021/09/05 09:35:53;;;;;;;5.57;4.30;;;29.10;99.90;;;;;;4991756;28;20822;-65
2021/09/05 09:38:21;;;;;;;5.00;4.50;;;29.30;99.90;;;;;;4993104;28;20478;-66
2021/09/05 09:40:50;;;;;;;19.47;16.70;;;29.30;99.90;;;;;;4995119;28;20474;-66
2021/09/05 09:43:22;;;;;;;5.30;4.80;;;29.60;99.90;;;;;;4995365;28;20454;-65
2021/09/05 09:45:51;;;;;;;4.73;4.33;;;28.70;99.90;;;;;;4995207;28;20466;-65
2021/09/05 09:48:28;;;;;;;4.63;4.23;;;26.80;99.90;;;;;;4994392;28;20450;-62
2021/09/05 09:51:01;;;;;;;5.50;5.00;;;25.80;99.90;;;;;;4995108;28;20465;-62
2021/09/05 09:53:29;;;;;;;5.97;5.03;;;26.00;99.90;;;;;;4995383;28;20458;-62
2021/09/05 09:55:59;;;;;;;5.33;4.83;;;26.00;99.90;;;;;;4995219;28;20451;-63
2021/09/05 09:58:26;;;;;;;5.40;4.90;;;26.20;99.90;;;;;;4994988;28;20548;-64
2021/09/05 10:00:55;;;;;;;11.30;8.37;;;26.80;99.90;;;;;;4994205;28;20605;-65
2021/09/05 10:03:24;;;;;;;9.90;7.77;;;27.10;99.90;;;;;;4994902;28;20496;-65
2021/09/05 10:05:52;;;;;;;4.97;4.57;;;28.00;99.90;;;;;;4994103;28;20541;-65
2021/09/05 10:08:20;;;;;;;7.40;5.10;;;28.70;99.90;;;;;;4995032;28;20546;-65
2021/09/05 10:10:48;;;;;;;5.73;5.10;;;29.00;99.90;;;;;;4994370;28;20478;-65
2021/09/05 10:13:16;;;;;;;5.93;5.30;;;29.40;99.90;;;;;;4991966;28;20814;-64
2021/09/05 10:15:44;;;;;;;5.40;4.90;;;29.60;99.90;;;;;;4994310;28;20242;-65
2021/09/05 10:18:12;;;;;;;5.20;4.70;;;29.80;99.90;;;;;;4994254;28;20577;-64
2021/09/05 10:20:40;;;;;;;6.60;5.57;;;29.90;99.90;;;;;;4993635;28;20987;-65
2021/09/05 10:23:07;;;;;;;8.80;7.50;;;29.80;99.90;;;;;;4994348;28;20855;-65
2021/09/05 10:25:37;;;;;;;8.90;7.63;;;29.00;99.90;;;;;;4994267;28;20529;-64
2021/09/05 10:28:05;;;;;;;7.27;6.67;;;28.10;99.90;;;;;;4994199;28;20493;-64
2021/09/05 10:30:36;;;;;;;10.17;7.93;;;28.50;99.90;;;;;;4993633;28;20567;-65
2021/09/05 10:33:03;;;;;;;8.90;7.50;;;28.00;99.90;;;;;;4993396;28;20482;-66
2021/09/05 10:35:38;;;;;;;7.90;7.10;;;27.60;99.90;;;;;;4994072;28;20804;-65
2021/09/05 10:38:31;;;;;;;9.47;8.57;;;27.60;99.90;;;;;;4994132;28;20508;-66
2021/09/05 10:41:00;;;;;;;12.83;8.80;;;27.80;99.90;;;;;;4993087;28;20524;-62
2021/09/05 10:44:15;;;;;;;8.67;7.77;;;27.10;99.90;;;;;;4983821;28;20929;-63
2021/09/05 10:46:48;;;;;;;8.53;7.60;;;26.40;99.90;;;;;;4983430;28;20442;-61
2021/09/05 10:49:16;;;;;;;9.23;7.10;;;25.60;99.90;;;;;;4991547;28;20501;-61
2021/09/05 10:51:49;;;;;;;7.87;7.00;;;25.60;99.90;;;;;;4992452;28;20509;-61
2021/09/05 10:54:24;;;;;;;8.57;7.67;;;26.00;99.90;;;;;;4980383;28;20491;-61
2021/09/05 10:56:51;;;;;;;8.60;7.10;;;25.50;99.90;;;;;;4975993;28;20450;-60
2021/09/05 10:59:21;;;;;;;7.73;6.93;;;25.80;99.90;;;;;;4993653;28;20474;-61
2021/09/05 11:02:02;;;;;;;9.00;6.93;;;26.30;99.90;;;;;;4993057;28;20550;-60
2021/09/05 11:04:50;;;;;;;7.80;7.10;;;26.50;99.90;;;;;;4993640;28;20540;-61
2021/09/05 11:07:34;;;;;;;13.13;6.67;;;27.00;99.90;;;;;;4990125;28;20446;-60
2021/09/05 11:10:04;;;;;;;8.83;7.53;;;27.40;99.90;;;;;;4983654;28;20471;-60
2021/09/05 11:12:36;;;;;;;7.97;7.17;;;27.20;99.90;;;;;;4983853;28;20459;-61
2021/09/05 11:15:20;;;;;;;7.27;6.50;;;26.40;99.90;;;;;;4993367;28;20461;-60
2021/09/05 11:17:55;;;;;;;6.20;5.60;;;26.20;99.90;;;;;;4993053;28;20898;-61
2021/09/05 11:20:22;;;;;;;6.90;6.20;;;26.00;99.90;;;;;;4992960;28;21011;-62
2021/09/05 11:22:49;;;;;;;6.93;6.00;;;26.00;99.90;;;;;;4992887;28;20489;-61
2021/09/05 11:25:22;;;;;;;7.30;6.27;;;25.90;99.90;;;;;;4993109;28;20832;-62
2021/09/05 11:27:52;;;;;;;6.30;5.70;;;26.10;99.90;;;;;;4993230;28;20454;-63
2021/09/05 11:30:20;;;;;;;6.87;6.03;;;26.30;99.90;;;;;;4991767;28;21058;-61
2021/09/05 11:32:48;;;;;;;7.50;6.13;;;26.10;99.90;;;;;;4992887;28;20479;-60
2021/09/05 11:35:17;;;;;;;6.50;5.47;;;25.40;99.90;;;;;;4992433;28;20523;-61
2021/09/05 11:37:46;;;;;;;6.37;5.67;;;25.30;99.90;;;;;;4992128;28;20498;-61
2021/09/05 11:40:15;;;;;;;7.40;5.83;;;25.50;99.90;;;;;;4991809;28;20505;-62
2021/09/05 11:42:47;;;;;;;6.87;6.17;;;25.60;99.90;;;;;;4991680;28;20461;-62
2021/09/05 11:45:14;;;;;;;8.90;6.20;;;25.30;99.90;;;;;;4992032;28;20509;-61
2021/09/05 11:47:43;;;;;;;7.60;6.30;;;25.00;99.90;;;;;;4991820;28;20447;-62
2021/09/05 11:50:11;;;;;;;8.53;6.50;;;25.00;99.90;;;;;;4991725;28;20502;-61
2021/09/05 11:52:42;;;;;;;7.53;6.20;;;24.80;99.90;;;;;;4991503;28;20461;-61
2021/09/05 11:55:11;;;;;;;6.93;6.23;;;24.60;99.90;;;;;;4991756;28;20839;-62
2021/09/05 11:57:53;;;;;;;7.33;6.57;;;24.60;99.90;;;;;;4991568;28;20545;-61
2021/09/05 12:00:32;;;;;;;8.10;7.00;;;24.30;99.90;;;;;;4991238;28;20474;-61
2021/09/05 12:03:00;;;;;;;8.23;6.87;;;24.10;99.90;;;;;;4991042;28;20454;-62
2021/09/05 12:05:28;;;;;;;6.10;5.50;;;24.20;99.90;;;;;;4991552;28;20516;-60
2021/09/05 12:07:56;;;;;;;8.33;6.03;;;24.10;99.90;;;;;;4991952;28;20450;-61
2021/09/05 12:10:26;;;;;;;9.90;5.90;;;24.20;99.90;;;;;;4991564;28;20529;-61
2021/09/05 12:13:01;;;;;;;6.60;5.73;;;24.20;99.90;;;;;;4980133;28;20455;-61
2021/09/05 12:15:33;;;;;;;6.00;5.43;;;24.00;99.90;;;;;;4972100;28;20447;-61
2021/09/05 12:18:00;;;;;;;7.13;6.40;;;24.10;99.90;;;;;;4971965;28;20490;-60
2021/09/05 12:20:40;;;;;;;5.93;5.27;;;23.90;99.90;;;;;;4979266;28;20549;-61
2021/09/05 12:23:23;;;;;;;5.80;5.20;;;23.90;99.90;;;;;;4991750;28;20505;-61
2021/09/05 12:25:50;;;;;;;5.90;4.80;;;24.10;99.90;;;;;;4974213;28;20451;-61
2021/09/05 12:28:23;;;;;;;6.47;5.63;;;24.20;99.90;;;;;;4971917;28;20517;-62
2021/09/05 12:30:52;;;;;;;5.87;5.30;;;24.20;99.90;;;;;;4981268;28;20898;-61
2021/09/05 12:33:21;;;;;;;6.07;4.93;;;24.40;99.90;;;;;;4991457;28;20454;-60
2021/09/05 12:35:50;;;;;;;6.00;5.40;;;24.40;99.90;;;;;;4991422;28;20447;-61
2021/09/05 12:38:28;;;;;;;6.30;5.67;;;24.60;99.90;;;;;;4991259;28;20501;-61
2021/09/05 12:41:04;;;;;;;6.40;5.80;;;24.50;99.90;;;;;;4980357;28;20479;-61
2021/09/05 12:43:43;;;;;;;5.87;5.33;;;24.30;99.90;;;;;;4972058;28;20451;-60
2021/09/05 12:46:10;;;;;;;8.80;6.17;;;24.10;99.90;;;;;;4971697;28;20462;-60
2021/09/05 12:48:38;;;;;;;7.10;5.70;;;24.20;99.90;;;;;;4971776;28;20451;-60
2021/09/05 12:51:08;;;;;;;8.43;7.50;;;24.00;99.90;;;;;;4982612;28;20552;-60
2021/09/05 12:53:37;;;;;;;6.30;5.70;;;23.90;99.90;;;;;;4991081;28;20462;-60
2021/09/05 12:56:05;;;;;;;7.87;6.07;;;23.90;99.90;;;;;;4991396;28;20461;-60